METAR AND TAF INFORMATION
METAR FOR ESSB
ADDS - METARS form results

(0410 UTC 03 February 2023)
Data provider http://aviationweather.gov/metar/data/
 
METAR text: ESSB 030350Z AUTO 00000KT 9999 NCD M11/M13 Q1012
Conditions at: ESSB (STOCKHOLM/BROMMA, SE) observed 0350 UTC 03 February 2023
Temperature: -11.0°C (12°F)
Dewpoint: -13.0°C ( 9°F) [RH = 85%]
Pressure (altimeter): 29.88 inches Hg (1012.0 mb)
Winds: calm
Visibility: 6 or more miles (10+ km)
Ceiling: at least 12,000 feet AGL
Clouds: sky clear below 12,000 feet AGL
Weather: no significant weather observed at this time

METAR text: ESSB 030320Z AUTO 00000KT 9999 NCD M12/M13 Q1013
Conditions at: ESSB (STOCKHOLM/BROMMA, SE) observed 0320 UTC 03 February 2023
Temperature: -12.0°C (10°F)
Dewpoint: -13.0°C ( 9°F) [RH = 92%]
Pressure (altimeter): 29.91 inches Hg (1013.0 mb)
Winds: calm
Visibility: 6 or more miles (10+ km)
Ceiling: at least 12,000 feet AGL
Clouds: sky clear below 12,000 feet AGL
Weather: no significant weather observed at this time

Forecast for: ESSB (STOCKHOLM/BROMMA, SE)
Text: TAF ESSB 030330Z 0304/0312 VRB02KT CAVOK
Forecast period: 0400 to 1200 UTC 03 February 2023
Forecast type: FROM: standard forecast or significant change
Winds: variable direction winds at 2 MPH (2 knots; 1.0 m/s)
Visibility: 6 or more miles (10+ km)
Ceiling: unknown
Clouds: missing
Weather: NSW  (no significant weather)
Text: TEMPO 0310/0312 BKN012
Forecast period: 1000 to 1200 UTC 03 February 2023
Forecast type: TEMPORARY: The following changes expected for less than half the time period
Visibility: missing
Ceiling: 1200 feet AGL
Clouds: broken clouds at 1200 feet AGL
Weather: no significant weather forecast for this period

 AIRPORT MAP

 RUNWAY INFORMATION
Runway 12 Runway length 5472 ft Runway width 148 ft
Runway elevation 46 ft Runway displaced threshold 0 ft Runway heading 125
Runway 30 Runway length 5472 ft Runway width 148 ft
Runway elevation 42 ft Runway displaced threshold 0 ft Runway heading 305

 AIRPORT FREQUENCIES
Type AFIS Name AFIS Frequency 119.4 MHZ
Type APP Name APP Frequency 120.15 MHZ
Type ATIS Name ATIS Frequency 122.45 MHZ
Type GND Name GND Frequency 121.6 MHZ
Type TWR Name TWR Frequency 118.1 MHZ

 AIRPORT NEAR NAVIGATION AIDS
Type NDB Name Nacka Frequency 335 KHZ
Type NDB Name Bromma Frequency 394 KHZ
Type NDB Name Bromma Frequency 322 KHZ



Powered by Virtual Airlines Manager [v2.6.2]